Vernon, Colorado
Current Conditions -  °F | °C
As of 2:35 PM on Thursday 23 Oct 2014 (Local Time) from K2V5 Reporting Station
Clear Clear  
Wind Chill: 79°   Ceiling: Unl
Heat Index: 79°   Visibility: 10mi
Dew Point: 35°   Wind: 3mph
Humidity: 21%   Direction: 210°SSW
Pressure: 30.04"   Gusts: NA
Location:  39.95°N, 102.32°W
Report Text: K2V5 232035Z AUTO 21003KT 10SM CLR 26/02 A3004 RMK AO2 T02610018
Loading
Personal Weather Stations






























Interactive Weather Map
Tropical Storm Tracking
New forecast layout! Learn more

10-Day Weather Forecast

Advertisements
Track Severe Weather on mobile